sensor_id;sensor_type;location;lat;lon;timestamp;P1;durP1;ratioP1;P2;durP2;ratioP2
34982;SDS011;21187;50.976;13.720;2023-10-31T00:02:53;9.65;;;5.75;;
34982;SDS011;21187;50.976;13.720;2023-10-31T00:07:55;8.00;;;4.20;;
34982;SDS011;21187;50.976;13.720;2023-10-31T00:12:57;12.38;;;5.35;;
34982;SDS011;21187;50.976;13.720;2023-10-31T00:17:59;12.30;;;5.20;;
34982;SDS011;21187;50.976;13.720;2023-10-31T00:23:01;8.20;;;4.70;;
34982;SDS011;21187;50.976;13.720;2023-10-31T00:28:03;11.40;;;5.35;;
34982;SDS011;21187;50.976;13.720;2023-10-31T00:33:05;10.05;;;5.05;;
34982;SDS011;21187;50.976;13.720;2023-10-31T00:38:07;12.93;;;5.60;;
34982;SDS011;21187;50.976;13.720;2023-10-31T00:43:09;14.98;;;5.55;;
34982;SDS011;21187;50.976;13.720;2023-10-31T00:48:11;11.00;;;5.30;;
34982;SDS011;21187;50.976;13.720;2023-10-31T00:53:13;12.60;;;5.35;;
34982;SDS011;21187;50.976;13.720;2023-10-31T00:58:16;6.80;;;4.32;;
34982;SDS011;21187;50.976;13.720;2023-10-31T01:03:18;10.93;;;5.00;;
34982;SDS011;21187;50.976;13.720;2023-10-31T01:08:20;8.30;;;4.85;;
34982;SDS011;21187;50.976;13.720;2023-10-31T01:13:22;12.10;;;6.13;;
34982;SDS011;21187;50.976;13.720;2023-10-31T01:18:24;11.18;;;6.32;;
34982;SDS011;21187;50.976;13.720;2023-10-31T01:23:26;12.60;;;5.43;;
34982;SDS011;21187;50.976;13.720;2023-10-31T01:28:28;12.05;;;5.00;;
34982;SDS011;21187;50.976;13.720;2023-10-31T01:33:30;10.88;;;5.10;;
34982;SDS011;21187;50.976;13.720;2023-10-31T01:38:32;16.73;;;6.03;;
34982;SDS011;21187;50.976;13.720;2023-10-31T01:43:34;14.55;;;5.68;;
34982;SDS011;21187;50.976;13.720;2023-10-31T01:48:37;11.35;;;4.80;;
34982;SDS011;21187;50.976;13.720;2023-10-31T01:53:39;9.63;;;4.95;;
34982;SDS011;21187;50.976;13.720;2023-10-31T01:58:41;8.07;;;4.93;;
34982;SDS011;21187;50.976;13.720;2023-10-31T02:03:45;12.15;;;5.70;;
34982;SDS011;21187;50.976;13.720;2023-10-31T02:08:47;8.68;;;5.07;;
34982;SDS011;21187;50.976;13.720;2023-10-31T02:13:49;10.98;;;5.47;;
34982;SDS011;21187;50.976;13.720;2023-10-31T02:18:51;13.23;;;6.55;;
34982;SDS011;21187;50.976;13.720;2023-10-31T02:29:05;15.05;;;7.40;;
34982;SDS011;21187;50.976;13.720;2023-10-31T02:34:08;15.70;;;7.50;;
34982;SDS011;21187;50.976;13.720;2023-10-31T02:39:10;14.93;;;9.02;;
34982;SDS011;21187;50.976;13.720;2023-10-31T02:44:14;17.92;;;9.32;;
34982;SDS011;21187;50.976;13.720;2023-10-31T02:49:16;16.23;;;9.27;;
34982;SDS011;21187;50.976;13.720;2023-10-31T02:54:18;19.70;;;10.30;;
34982;SDS011;21187;50.976;13.720;2023-10-31T02:59:20;21.67;;;12.35;;
34982;SDS011;21187;50.976;13.720;2023-10-31T03:04:22;25.02;;;12.50;;
34982;SDS011;21187;50.976;13.720;2023-10-31T03:09:24;28.20;;;13.20;;
34982;SDS011;21187;50.976;13.720;2023-10-31T03:14:26;21.70;;;12.10;;
34982;SDS011;21187;50.976;13.720;2023-10-31T03:19:28;22.30;;;12.40;;
34982;SDS011;21187;50.976;13.720;2023-10-31T03:24:30;21.02;;;11.77;;
34982;SDS011;21187;50.976;13.720;2023-10-31T03:29:33;17.33;;;10.10;;
34982;SDS011;21187;50.976;13.720;2023-10-31T03:34:35;18.25;;;9.35;;
34982;SDS011;21187;50.976;13.720;2023-10-31T03:39:39;13.80;;;7.80;;
34982;SDS011;21187;50.976;13.720;2023-10-31T03:44:41;12.63;;;7.05;;
34982;SDS011;21187;50.976;13.720;2023-10-31T03:49:43;13.02;;;7.22;;
34982;SDS011;21187;50.976;13.720;2023-10-31T03:54:45;13.38;;;6.28;;
34982;SDS011;21187;50.976;13.720;2023-10-31T03:59:47;9.32;;;5.15;;
34982;SDS011;21187;50.976;13.720;2023-10-31T04:04:49;10.60;;;5.97;;
34982;SDS011;21187;50.976;13.720;2023-10-31T04:09:51;10.07;;;4.70;;
34982;SDS011;21187;50.976;13.720;2023-10-31T04:14:53;9.68;;;5.10;;
34982;SDS011;21187;50.976;13.720;2023-10-31T04:19:55;7.65;;;4.57;;
34982;SDS011;21187;50.976;13.720;2023-10-31T04:24:56;4.93;;;3.58;;
34982;SDS011;21187;50.976;13.720;2023-10-31T04:29:58;4.10;;;2.13;;
34982;SDS011;21187;50.976;13.720;2023-10-31T04:35:00;3.95;;;1.75;;
34982;SDS011;21187;50.976;13.720;2023-10-31T04:40:02;2.13;;;1.05;;
34982;SDS011;21187;50.976;13.720;2023-10-31T04:45:04;2.05;;;1.60;;
34982;SDS011;21187;50.976;13.720;2023-10-31T04:50:07;5.32;;;1.20;;
34982;SDS011;21187;50.976;13.720;2023-10-31T04:55:10;2.65;;;1.65;;
34982;SDS011;21187;50.976;13.720;2023-10-31T05:00:12;3.47;;;1.27;;
34982;SDS011;21187;50.976;13.720;2023-10-31T05:05:14;2.80;;;1.75;;
34982;SDS011;21187;50.976;13.720;2023-10-31T05:10:17;2.80;;;1.40;;
34982;SDS011;21187;50.976;13.720;2023-10-31T05:15:19;4.40;;;1.40;;
34982;SDS011;21187;50.976;13.720;2023-10-31T05:20:20;2.00;;;1.10;;
34982;SDS011;21187;50.976;13.720;2023-10-31T05:25:22;3.33;;;1.20;;
34982;SDS011;21187;50.976;13.720;2023-10-31T05:30:24;2.65;;;1.10;;
34982;SDS011;21187;50.976;13.720;2023-10-31T05:35:26;1.42;;;0.88;;
34982;SDS011;21187;50.976;13.720;2023-10-31T05:40:28;2.00;;;0.88;;
34982;SDS011;21187;50.976;13.720;2023-10-31T05:45:31;3.20;;;0.88;;
34982;SDS011;21187;50.976;13.720;2023-10-31T05:50:32;2.00;;;1.05;;
34982;SDS011;21187;50.976;13.720;2023-10-31T05:55:34;1.92;;;0.80;;
34982;SDS011;21187;50.976;13.720;2023-10-31T06:00:40;0.70;;;0.65;;
34982;SDS011;21187;50.976;13.720;2023-10-31T06:05:42;1.42;;;0.70;;
34982;SDS011;21187;50.976;13.720;2023-10-31T06:10:45;0.70;;;0.60;;
34982;SDS011;21187;50.976;13.720;2023-10-31T06:15:47;1.10;;;0.73;;
34982;SDS011;21187;50.976;13.720;2023-10-31T06:20:49;1.85;;;0.70;;
34982;SDS011;21187;50.976;13.720;2023-10-31T06:25:51;1.50;;;0.50;;
34982;SDS011;21187;50.976;13.720;2023-10-31T06:30:53;0.52;;;0.50;;
34982;SDS011;21187;50.976;13.720;2023-10-31T06:35:55;0.40;;;0.40;;
34982;SDS011;21187;50.976;13.720;2023-10-31T06:40:57;0.98;;;0.70;;
34982;SDS011;21187;50.976;13.720;2023-10-31T06:45:59;1.08;;;0.65;;
34982;SDS011;21187;50.976;13.720;2023-10-31T06:51:02;5.15;;;0.70;;
34982;SDS011;21187;50.976;13.720;2023-10-31T06:56:04;0.85;;;0.60;;
34982;SDS011;21187;50.976;13.720;2023-10-31T07:01:06;0.50;;;0.50;;
34982;SDS011;21187;50.976;13.720;2023-10-31T07:06:08;2.63;;;0.43;;
34982;SDS011;21187;50.976;13.720;2023-10-31T07:11:10;0.73;;;0.60;;
34982;SDS011;21187;50.976;13.720;2023-10-31T07:16:12;1.45;;;0.70;;
34982;SDS011;21187;50.976;13.720;2023-10-31T07:21:14;1.00;;;0.47;;
34982;SDS011;21187;50.976;13.720;2023-10-31T07:26:16;3.20;;;0.32;;
34982;SDS011;21187;50.976;13.720;2023-10-31T07:31:18;0.65;;;0.40;;
34982;SDS011;21187;50.976;13.720;2023-10-31T07:36:20;2.00;;;0.40;;
34982;SDS011;21187;50.976;13.720;2023-10-31T07:41:22;1.13;;;0.70;;
34982;SDS011;21187;50.976;13.720;2023-10-31T07:46:24;0.32;;;0.32;;
34982;SDS011;21187;50.976;13.720;2023-10-31T07:51:26;0.68;;;0.50;;
34982;SDS011;21187;50.976;13.720;2023-10-31T07:56:28;0.40;;;0.40;;
34982;SDS011;21187;50.976;13.720;2023-10-31T08:01:29;3.80;;;0.50;;
34982;SDS011;21187;50.976;13.720;2023-10-31T08:06:31;0.60;;;0.52;;
34982;SDS011;21187;50.976;13.720;2023-10-31T08:11:33;0.50;;;0.40;;
34982;SDS011;21187;50.976;13.720;2023-10-31T08:16:36;1.75;;;0.30;;
34982;SDS011;21187;50.976;13.720;2023-10-31T08:21:38;3.65;;;0.55;;
34982;SDS011;21187;50.976;13.720;2023-10-31T08:26:40;0.30;;;0.22;;
34982;SDS011;21187;50.976;13.720;2023-10-31T08:31:42;0.70;;;0.40;;
34982;SDS011;21187;50.976;13.720;2023-10-31T08:36:44;0.68;;;0.38;;
34982;SDS011;21187;50.976;13.720;2023-10-31T08:41:50;1.27;;;0.70;;
34982;SDS011;21187;50.976;13.720;2023-10-31T08:46:53;1.02;;;0.75;;
34982;SDS011;21187;50.976;13.720;2023-10-31T08:51:55;0.30;;;0.30;;
34982;SDS011;21187;50.976;13.720;2023-10-31T08:56:57;1.15;;;0.60;;
34982;SDS011;21187;50.976;13.720;2023-10-31T09:01:59;0.70;;;0.68;;
34982;SDS011;21187;50.976;13.720;2023-10-31T09:07:01;0.38;;;0.38;;
34982;SDS011;21187;50.976;13.720;2023-10-31T09:12:03;0.98;;;0.60;;
34982;SDS011;21187;50.976;13.720;2023-10-31T09:17:05;1.65;;;0.35;;
34982;SDS011;21187;50.976;13.720;2023-10-31T09:22:07;0.98;;;0.38;;
34982;SDS011;21187;50.976;13.720;2023-10-31T09:27:09;0.20;;;0.20;;
34982;SDS011;21187;50.976;13.720;2023-10-31T09:32:11;0.90;;;0.50;;
34982;SDS011;21187;50.976;13.720;2023-10-31T09:37:14;3.05;;;0.60;;
34982;SDS011;21187;50.976;13.720;2023-10-31T09:42:16;0.65;;;0.45;;
34982;SDS011;21187;50.976;13.720;2023-10-31T09:47:19;0.50;;;0.50;;
34982;SDS011;21187;50.976;13.720;2023-10-31T09:52:22;1.23;;;0.40;;
34982;SDS011;21187;50.976;13.720;2023-10-31T09:57:24;1.88;;;0.40;;
34982;SDS011;21187;50.976;13.720;2023-10-31T10:02:27;3.00;;;0.80;;
34982;SDS011;21187;50.976;13.720;2023-10-31T10:07:30;2.35;;;1.45;;
34982;SDS011;21187;50.976;13.720;2023-10-31T10:12:34;0.20;;;0.20;;
34982;SDS011;21187;50.976;13.720;2023-10-31T10:17:36;0.40;;;0.35;;
34982;SDS011;21187;50.976;13.720;2023-10-31T10:27:41;0.30;;;0.30;;
34982;SDS011;21187;50.976;13.720;2023-10-31T10:32:43;0.60;;;0.60;;
34982;SDS011;21187;50.976;13.720;2023-10-31T10:37:46;2.25;;;0.47;;
34982;SDS011;21187;50.976;13.720;2023-10-31T10:42:49;0.60;;;0.22;;
34982;SDS011;21187;50.976;13.720;2023-10-31T10:47:58;0.30;;;0.30;;
34982;SDS011;21187;50.976;13.720;2023-10-31T11:03:37;2.05;;;0.40;;
34982;SDS011;21187;50.976;13.720;2023-10-31T11:08:40;1.00;;;0.30;;
34982;SDS011;21187;50.976;13.720;2023-10-31T11:13:44;0.63;;;0.50;;
34982;SDS011;21187;50.976;13.720;2023-10-31T11:18:47;2.42;;;0.30;;
34982;SDS011;21187;50.976;13.720;2023-10-31T11:23:58;0.52;;;0.30;;
34982;SDS011;21187;50.976;13.720;2023-10-31T11:29:04;1.17;;;0.20;;
34982;SDS011;21187;50.976;13.720;2023-10-31T11:34:07;0.32;;;0.20;;
34982;SDS011;21187;50.976;13.720;2023-10-31T11:39:10;2.67;;;0.30;;
34982;SDS011;21187;50.976;13.720;2023-10-31T11:44:19;0.93;;;0.30;;
34982;SDS011;21187;50.976;13.720;2023-10-31T11:54:51;2.65;;;0.60;;
34982;SDS011;21187;50.976;13.720;2023-10-31T11:59:53;0.28;;;0.28;;
34982;SDS011;21187;50.976;13.720;2023-10-31T12:05:10;0.35;;;0.32;;
34982;SDS011;21187;50.976;13.720;2023-10-31T12:10:16;1.02;;;0.57;;
34982;SDS011;21187;50.976;13.720;2023-10-31T12:15:25;0.93;;;0.55;;
34982;SDS011;21187;50.976;13.720;2023-10-31T12:20:27;0.30;;;0.30;;
34982;SDS011;21187;50.976;13.720;2023-10-31T12:25:29;0.35;;;0.20;;
34982;SDS011;21187;50.976;13.720;2023-10-31T12:30:34;0.75;;;0.30;;
34982;SDS011;21187;50.976;13.720;2023-10-31T12:35:47;0.38;;;0.35;;
34982;SDS011;21187;50.976;13.720;2023-10-31T12:40:50;0.20;;;0.20;;
34982;SDS011;21187;50.976;13.720;2023-10-31T12:45:53;0.70;;;0.40;;
34982;SDS011;21187;50.976;13.720;2023-10-31T12:51:07;0.30;;;0.30;;
34982;SDS011;21187;50.976;13.720;2023-10-31T12:56:10;0.73;;;0.60;;
34982;SDS011;21187;50.976;13.720;2023-10-31T13:01:12;1.58;;;0.50;;
34982;SDS011;21187;50.976;13.720;2023-10-31T13:06:17;0.60;;;0.60;;
34982;SDS011;21187;50.976;13.720;2023-10-31T13:11:19;1.63;;;1.10;;
34982;SDS011;21187;50.976;13.720;2023-10-31T13:16:27;4.38;;;0.43;;
34982;SDS011;21187;50.976;13.720;2023-10-31T13:21:28;1.35;;;0.30;;
34982;SDS011;21187;50.976;13.720;2023-10-31T13:26:30;2.35;;;0.60;;
34982;SDS011;21187;50.976;13.720;2023-10-31T13:31:34;0.50;;;0.40;;
34982;SDS011;21187;50.976;13.720;2023-10-31T13:36:38;2.90;;;1.10;;
34982;SDS011;21187;50.976;13.720;2023-10-31T13:41:41;0.77;;;0.47;;
34982;SDS011;21187;50.976;13.720;2023-10-31T13:46:43;1.77;;;0.60;;
34982;SDS011;21187;50.976;13.720;2023-10-31T13:51:46;0.40;;;0.40;;
34982;SDS011;21187;50.976;13.720;2023-10-31T13:56:49;0.60;;;0.38;;
34982;SDS011;21187;50.976;13.720;2023-10-31T14:01:51;0.50;;;0.50;;
34982;SDS011;21187;50.976;13.720;2023-10-31T14:06:53;1.10;;;0.50;;
34982;SDS011;21187;50.976;13.720;2023-10-31T14:11:55;2.63;;;0.50;;
34982;SDS011;21187;50.976;13.720;2023-10-31T14:16:57;1.88;;;0.60;;
34982;SDS011;21187;50.976;13.720;2023-10-31T14:21:59;1.17;;;0.60;;
34982;SDS011;21187;50.976;13.720;2023-10-31T14:27:02;4.18;;;0.60;;
34982;SDS011;21187;50.976;13.720;2023-10-31T14:32:08;1.60;;;1.08;;
34982;SDS011;21187;50.976;13.720;2023-10-31T14:37:11;1.15;;;0.70;;
34982;SDS011;21187;50.976;13.720;2023-10-31T14:42:14;2.42;;;0.50;;
34982;SDS011;21187;50.976;13.720;2023-10-31T14:47:16;1.17;;;0.60;;
34982;SDS011;21187;50.976;13.720;2023-10-31T14:52:17;0.70;;;0.70;;
34982;SDS011;21187;50.976;13.720;2023-10-31T14:57:19;0.80;;;0.60;;
34982;SDS011;21187;50.976;13.720;2023-10-31T15:02:21;6.05;;;0.80;;
34982;SDS011;21187;50.976;13.720;2023-10-31T15:07:24;1.23;;;0.60;;
34982;SDS011;21187;50.976;13.720;2023-10-31T15:12:28;1.40;;;0.60;;
34982;SDS011;21187;50.976;13.720;2023-10-31T15:17:31;0.93;;;0.60;;
34982;SDS011;21187;50.976;13.720;2023-10-31T15:22:34;0.65;;;0.60;;
34982;SDS011;21187;50.976;13.720;2023-10-31T15:27:36;0.63;;;0.50;;
34982;SDS011;21187;50.976;13.720;2023-10-31T15:32:39;0.77;;;0.50;;
34982;SDS011;21187;50.976;13.720;2023-10-31T15:37:42;1.65;;;0.70;;
34982;SDS011;21187;50.976;13.720;2023-10-31T15:42:45;1.85;;;1.35;;
34982;SDS011;21187;50.976;13.720;2023-10-31T15:47:47;1.80;;;0.73;;
34982;SDS011;21187;50.976;13.720;2023-10-31T15:52:50;0.80;;;0.60;;
34982;SDS011;21187;50.976;13.720;2023-10-31T15:57:52;3.53;;;1.20;;
34982;SDS011;21187;50.976;13.720;2023-10-31T16:02:53;5.65;;;1.30;;
34982;SDS011;21187;50.976;13.720;2023-10-31T16:07:56;4.75;;;1.90;;
34982;SDS011;21187;50.976;13.720;2023-10-31T16:12:58;1.75;;;0.90;;
34982;SDS011;21187;50.976;13.720;2023-10-31T16:18:00;1.27;;;1.00;;
34982;SDS011;21187;50.976;13.720;2023-10-31T16:23:03;4.57;;;1.83;;
34982;SDS011;21187;50.976;13.720;2023-10-31T16:28:06;5.97;;;0.88;;
34982;SDS011;21187;50.976;13.720;2023-10-31T16:33:08;2.47;;;0.93;;
34982;SDS011;21187;50.976;13.720;2023-10-31T16:38:11;2.15;;;0.98;;
34982;SDS011;21187;50.976;13.720;2023-10-31T16:43:13;4.53;;;1.52;;
34982;SDS011;21187;50.976;13.720;2023-10-31T16:48:17;2.08;;;1.02;;
34982;SDS011;21187;50.976;13.720;2023-10-31T16:53:19;2.40;;;0.80;;
34982;SDS011;21187;50.976;13.720;2023-10-31T16:58:21;2.30;;;1.20;;
34982;SDS011;21187;50.976;13.720;2023-10-31T17:03:23;1.08;;;0.60;;
34982;SDS011;21187;50.976;13.720;2023-10-31T17:08:25;1.88;;;0.98;;
34982;SDS011;21187;50.976;13.720;2023-10-31T17:13:27;1.38;;;0.70;;
34982;SDS011;21187;50.976;13.720;2023-10-31T17:18:30;3.05;;;0.73;;
34982;SDS011;21187;50.976;13.720;2023-10-31T17:23:33;2.13;;;1.23;;
34982;SDS011;21187;50.976;13.720;2023-10-31T17:28:35;2.30;;;1.02;;
34982;SDS011;21187;50.976;13.720;2023-10-31T17:33:41;7.57;;;2.05;;
34982;SDS011;21187;50.976;13.720;2023-10-31T17:38:45;2.75;;;1.60;;
34982;SDS011;21187;50.976;13.720;2023-10-31T17:43:47;2.78;;;1.20;;
34982;SDS011;21187;50.976;13.720;2023-10-31T17:48:49;2.95;;;1.10;;
34982;SDS011;21187;50.976;13.720;2023-10-31T17:53:52;4.13;;;1.20;;
34982;SDS011;21187;50.976;13.720;2023-10-31T17:58:55;2.63;;;0.95;;
34982;SDS011;21187;50.976;13.720;2023-10-31T18:03:57;3.25;;;1.20;;
34982;SDS011;21187;50.976;13.720;2023-10-31T18:08:59;3.13;;;1.30;;
34982;SDS011;21187;50.976;13.720;2023-10-31T18:14:01;4.72;;;1.08;;
34982;SDS011;21187;50.976;13.720;2023-10-31T18:19:03;2.85;;;1.83;;
34982;SDS011;21187;50.976;13.720;2023-10-31T18:24:07;1.73;;;1.38;;
34982;SDS011;21187;50.976;13.720;2023-10-31T18:29:09;4.55;;;1.25;;
34982;SDS011;21187;50.976;13.720;2023-10-31T18:34:11;1.67;;;1.13;;
34982;SDS011;21187;50.976;13.720;2023-10-31T18:39:14;3.33;;;1.40;;
34982;SDS011;21187;50.976;13.720;2023-10-31T18:44:16;3.08;;;1.08;;
34982;SDS011;21187;50.976;13.720;2023-10-31T18:49:36;1.13;;;1.00;;
34982;SDS011;21187;50.976;13.720;2023-10-31T18:54:38;1.50;;;1.10;;
34982;SDS011;21187;50.976;13.720;2023-10-31T18:59:40;3.47;;;1.00;;
34982;SDS011;21187;50.976;13.720;2023-10-31T19:04:42;3.03;;;1.17;;
34982;SDS011;21187;50.976;13.720;2023-10-31T19:09:44;6.60;;;2.28;;
34982;SDS011;21187;50.976;13.720;2023-10-31T19:14:46;6.72;;;1.92;;
34982;SDS011;21187;50.976;13.720;2023-10-31T19:19:48;4.13;;;1.38;;
34982;SDS011;21187;50.976;13.720;2023-10-31T19:24:50;7.07;;;2.08;;
34982;SDS011;21187;50.976;13.720;2023-10-31T19:29:52;7.38;;;2.30;;
34982;SDS011;21187;50.976;13.720;2023-10-31T19:34:54;7.20;;;1.80;;
34982;SDS011;21187;50.976;13.720;2023-10-31T19:39:56;6.43;;;2.10;;
34982;SDS011;21187;50.976;13.720;2023-10-31T19:44:57;4.43;;;1.80;;
34982;SDS011;21187;50.976;13.720;2023-10-31T19:50:00;7.18;;;2.10;;
34982;SDS011;21187;50.976;13.720;2023-10-31T19:55:04;7.93;;;1.67;;
34982;SDS011;21187;50.976;13.720;2023-10-31T20:00:07;11.05;;;2.60;;
34982;SDS011;21187;50.976;13.720;2023-10-31T20:05:13;11.95;;;2.13;;
34982;SDS011;21187;50.976;13.720;2023-10-31T20:10:15;3.90;;;1.42;;
34982;SDS011;21187;50.976;13.720;2023-10-31T20:15:17;2.42;;;1.17;;
34982;SDS011;21187;50.976;13.720;2023-10-31T20:20:19;3.13;;;1.38;;
34982;SDS011;21187;50.976;13.720;2023-10-31T20:25:21;3.13;;;1.00;;
34982;SDS011;21187;50.976;13.720;2023-10-31T20:30:23;4.32;;;1.15;;
34982;SDS011;21187;50.976;13.720;2023-10-31T20:35:27;6.20;;;1.23;;
34982;SDS011;21187;50.976;13.720;2023-10-31T20:40:29;2.08;;;1.02;;
34982;SDS011;21187;50.976;13.720;2023-10-31T20:45:32;3.90;;;1.23;;
34982;SDS011;21187;50.976;13.720;2023-10-31T20:50:35;4.03;;;1.13;;
34982;SDS011;21187;50.976;13.720;2023-10-31T20:55:37;6.20;;;1.20;;
34982;SDS011;21187;50.976;13.720;2023-10-31T21:00:41;2.97;;;1.25;;
34982;SDS011;21187;50.976;13.720;2023-10-31T21:05:43;2.97;;;1.10;;
34982;SDS011;21187;50.976;13.720;2023-10-31T21:10:45;3.20;;;1.50;;
34982;SDS011;21187;50.976;13.720;2023-10-31T21:15:47;3.50;;;1.20;;
34982;SDS011;21187;50.976;13.720;2023-10-31T21:20:49;1.52;;;0.80;;
34982;SDS011;21187;50.976;13.720;2023-10-31T21:25:51;5.68;;;1.40;;
34982;SDS011;21187;50.976;13.720;2023-10-31T21:30:54;2.22;;;1.33;;
34982;SDS011;21187;50.976;13.720;2023-10-31T21:35:56;0.75;;;0.70;;
34982;SDS011;21187;50.976;13.720;2023-10-31T21:40:58;1.95;;;0.90;;
34982;SDS011;21187;50.976;13.720;2023-10-31T21:45:59;3.85;;;0.80;;
34982;SDS011;21187;50.976;13.720;2023-10-31T21:51:02;3.08;;;1.10;;
34982;SDS011;21187;50.976;13.720;2023-10-31T21:56:04;5.45;;;1.23;;
34982;SDS011;21187;50.976;13.720;2023-10-31T22:01:06;8.68;;;1.23;;
34982;SDS011;21187;50.976;13.720;2023-10-31T22:06:08;2.08;;;0.93;;
34982;SDS011;21187;50.976;13.720;2023-10-31T22:11:10;2.75;;;1.25;;
34982;SDS011;21187;50.976;13.720;2023-10-31T22:16:12;2.20;;;0.60;;
34982;SDS011;21187;50.976;13.720;2023-10-31T22:21:14;4.88;;;0.80;;
34982;SDS011;21187;50.976;13.720;2023-10-31T22:26:16;5.30;;;0.95;;
34982;SDS011;21187;50.976;13.720;2023-10-31T22:31:17;4.80;;;1.00;;
34982;SDS011;21187;50.976;13.720;2023-10-31T22:36:19;1.80;;;1.00;;
34982;SDS011;21187;50.976;13.720;2023-10-31T22:41:21;8.27;;;1.17;;
34982;SDS011;21187;50.976;13.720;2023-10-31T22:46:23;1.38;;;0.82;;
34982;SDS011;21187;50.976;13.720;2023-10-31T22:51:25;3.63;;;1.38;;
34982;SDS011;21187;50.976;13.720;2023-10-31T22:56:28;3.70;;;1.05;;
34982;SDS011;21187;50.976;13.720;2023-10-31T23:01:32;5.10;;;1.20;;
34982;SDS011;21187;50.976;13.720;2023-10-31T23:06:35;4.03;;;1.10;;
34982;SDS011;21187;50.976;13.720;2023-10-31T23:11:37;5.07;;;1.35;;
34982;SDS011;21187;50.976;13.720;2023-10-31T23:16:39;6.45;;;0.93;;
34982;SDS011;21187;50.976;13.720;2023-10-31T23:21:41;5.53;;;1.23;;
34982;SDS011;21187;50.976;13.720;2023-10-31T23:26:42;6.55;;;1.63;;
34982;SDS011;21187;50.976;13.720;2023-10-31T23:31:45;8.95;;;1.52;;
34982;SDS011;21187;50.976;13.720;2023-10-31T23:36:47;2.20;;;0.88;;
34982;SDS011;21187;50.976;13.720;2023-10-31T23:41:49;1.45;;;1.13;;
34982;SDS011;21187;50.976;13.720;2023-10-31T23:46:51;3.03;;;1.10;;
34982;SDS011;21187;50.976;13.720;2023-10-31T23:51:54;4.65;;;1.20;;
34982;SDS011;21187;50.976;13.720;2023-10-31T23:56:55;5.32;;;1.15;;
